Metar Cercanos

 

LEPA - Palma De Mallorc, Spain
Distance from station: ONO 38km
Actualización: 11/12/2017 08:30
Muy nuboso
Muy nuboso
 Viento del SO
Viento: SO 39 km/h, Racha: 63 km/h
Temperatura: 18°C
Rocío: 14°C
Humedad: 78%
Barómetro: 995 hPa
Clouds: Muy nuboso
Visibility: 10 km
Cloud details: Muy nuboso 610 m
2017/12/11 07:30 LEPA 110730Z 23021G34KT 200V260 9999 BKN020 18/14 Q0995 NOSIG
LEMH - Mahon/Menorca Is, Spain
Distance from station: ENE 105km
Actualización: 11/12/2017 08:30
Muy nuboso
Muy nuboso
 Viento del SO
Viento: SO 48 km/h, Racha: 76 km/h
Temperatura: 16°C
Rocío: 14°C
Humedad: 88%
Barómetro: 996 hPa
Clouds: Muy nuboso
Visibility: 7 km
Cloud details: Muy nuboso 457 m
2017/12/11 07:30 LEMH 110730Z 23026G41KT 200V260 7000 BKN015 16/14 Q0996
 
LEIB - Ibiza/Es Codola, Spain
Distance from station: OSO 165km
Actualización: 11/12/2017 08:30
Muy nuboso
Muy nuboso
 Viento del SSO
Viento: SSO 46 km/h, Racha: 69 km/h
Temperatura: 17°C
Rocío: 13°C
Humedad: 77%
Barómetro: 994 hPa
Clouds: Muy nuboso
Visibility: 10 km
Cloud details: Muy nuboso 457 m
2017/12/11 07:30 LEIB 110730Z 21025G37KT 9999 BKN015 17/13 Q0994 NOSIG
LEBL - Barcelona Airpor, Spain
Distance from station: NNO 225km
Actualización: 11/12/2017 08:30
Few Clouds
Few Clouds
 Viento del SO
Viento: SO 37 km/h
Temperatura: 17°C
Rocío: 12°C
Humedad: 73%
Barómetro: 989 hPa
Clouds: Few Clouds
Visibility: 7 km
Cloud details: Few Clouds 762 m
2017/12/11 07:30 LEBL 110730Z 22020KT 7000 FEW025 17/12 Q0989 RERA NOSIG
 
LEVC - Valencia (civ/Mi, Spain
Distance from station: NO 188km
Actualización: 11/12/2017 08:30
Muy nuboso
Muy nuboso
 Viento del OSO
Viento: OSO 37 km/h, Racha: 57 km/h
Temperatura: 17°C
Rocío: 5°C
Humedad: 45%
Barómetro: 992 hPa
Clouds: Muy nuboso
Visibility: 10 km
Cloud details: Few Clouds 762 m
Muy nuboso 1676 m
2017/12/11 07:30 LEVC 110730Z 25020G31KT 9999 FEW025 BKN055 17/05 Q0992 NOSIG
LEGE - Gerona/Costa Bra, Spain
Distance from station: N 276km
Actualización: 11/12/2017 08:30
Parcialmente nuboso
Parcialmente nuboso
 Viento del SO
Viento: SO 17 km/h, Racha: 37 km/h
Temperatura: 14°C
Rocío: 10°C
Humedad: 77%
Barómetro: 988 hPa
Clouds: Parcialmente nuboso
Visibility: 10 km
Cloud details: Few Clouds 1067 m
Parcialmente nuboso 1981 m
2017/12/11 07:30 LEGE 110730Z 22009G20KT 160V260 9999 FEW035 SCT065 14/10 Q0988
 
LEAL - Alicante/El Alte, Spain
Distance from station: OSO 344km
Actualización: 11/12/2017 08:30
Few Clouds
Few Clouds
 Viento del SO
Viento: SO 11 km/h
Temperatura: 16°C
Rocío: 13°C
Humedad: 83%
Barómetro: 994 hPa
Clouds: Few Clouds
Visibility: 10 km
Cloud details: Few Clouds 549 m
2017/12/11 07:30 LEAL 110730Z 23006KT 190V290 9999 FEW018 16/13 Q0994 NOSIG
LEAM - Almeria Airport, Spain
Distance from station: SSO 56km
Actualización: 11/12/2017 08:30
Muy nuboso
Muy nuboso
 Viento del OSO
Viento: OSO 33 km/h
Temperatura: 16°C
Rocío: 14°C
Humedad: 88%
Barómetro: 998 hPa
Clouds: Muy nuboso
Visibility: 10 km
Cloud details: Muy nuboso 457 m
Muy nuboso 914 m
Muy nuboso 1524 m
2017/12/11 07:30 LEAM 110730Z 24018KT 200V270 9999 BKN015 BKN030 BKN050 16/14 Q0998
 
LEZG - Zaragoza (mil/Ci, Spain
Distance from station: NO 431km
Actualización: 11/12/2017 08:30
Few Clouds
Few Clouds
 Viento del SO
Viento: SO 15 km/h
Temperatura: 10°C
Sensación frio: 8°C
Rocío: 4°C
Humedad: 67%
Barómetro: 989 hPa
Clouds: Few Clouds
Visibility: 10 km
Cloud details: Few Clouds 2286 m
2017/12/11 07:30 LEZG 110730Z 23008KT 190V250 9999 FEW075 10/04 Q0989
LEMD - Madrid/Barajas, Spain
Distance from station: ONO 234km
Actualización: 11/12/2017 08:30
Few Clouds
Few Clouds
 Viento del OSO
Viento: OSO 30 km/h
Temperatura: 7°C
Sensación frio: 3°C
Rocío: 5°C
Humedad: 87%
Barómetro: 992 hPa
Clouds: Few Clouds
Visibility: 10 km
Cloud details: Few Clouds 488 m
2017/12/11 07:30 LEMD 110730Z 24016KT 210V270 9999 FEW016 07/05 Q0992 R88/29//95 NOSIG
 
LEGR - Granada Airport, Spain
Distance from station: OSO 62km
Actualización: 11/12/2017 08:35
Lluvia intensa, Muy nuboso
Lluvia intensa, Muy nuboso
 Viento del OSO
Viento: OSO 33 km/h, Racha: 61 km/h
Temperatura: 12°C
Rocío: 10°C
Humedad: 88%
Barómetro: 997 hPa
Resumen: Lluvia intensa
Clouds: Muy nuboso
Visibility: 4 km
Cloud details: Few Clouds 610 m
Muy nuboso 1067 m
Muy nuboso 2134 m
2017/12/11 07:35 LEGR 110735Z 24018G33KT 210V280 4000 +RA FEW020TCU BKN035 BKN070 12/10 Q0997
LEMG - Malaga (civ/Mil), Spain
Distance from station: OSO 227km
Actualización: 11/12/2017 08:35
Rain showers, Muy nuboso
Rain showers, Muy nuboso
 Viento del ONO
Viento: ONO 48 km/h, Racha: 72 km/h
Temperatura: 14°C
Rocío: 11°C
Humedad: 82%
Barómetro: 1000 hPa
Resumen: Rain Showers
Clouds: Muy nuboso
Visibility: 3 km
Cloud details: Few Clouds 457 m
Parcialmente nuboso 914 m
Muy nuboso 2134 m
2017/12/11 07:35 LEMG 110735Z 29026G39KT 3000 SHRA FEW015TCU SCT030 BKN070 14/11 Q1000 NOSIG
 
LEZL - Sevilla (civ/Mil, Spain
Distance from station: S 318km
Actualización: 11/12/2017 08:30
Lluvia débil, Few clouds
Lluvia débil, Few clouds
 Viento del OSO
Viento: OSO 9 km/h
Temperatura: 11°C
Rocío: 9°C
Humedad: 88%
Barómetro: 1002 hPa
Resumen: Lluvia débil
Clouds: Few Clouds
Visibility: 10 km
Cloud details: Few Clouds 1219 m
2017/12/11 07:30 LEZL 110730Z 25005KT 220V280 9999 -RA FEW040 11/09 Q1002 NOSIG
LEVT - Vitoria, Spain
Distance from station: NO 226km
Actualización: 11/12/2017 08:30
Lluvia débil, Muy nuboso
Lluvia débil, Muy nuboso
 Viento del SSO
Viento: SSO 11 km/h
Temperatura: 4°C
Sensación frio: 1°C
Rocío: 3°C
Humedad: 93%
Barómetro: 989 hPa
Resumen: Lluvia débil
Clouds: Muy nuboso
Visibility: 10 km
Cloud details: Parcialmente nuboso 549 m
Muy nuboso 975 m
2017/12/11 07:30 LEVT 110730Z 20006KT 9999 -RA SCT018 BKN032 04/03 Q0989
 
LEBB - Bilbao/Sondica, Spain
Distance from station: NNO 235km
Actualización: 11/12/2017 08:30
Parcialmente nuboso
Parcialmente nuboso
 Viento del O
Viento: O 11 km/h
Temperatura: 9°C
Sensación frio: 7°C
Rocío: 5°C
Humedad: 76%
Barómetro: 989 hPa
Clouds: Parcialmente nuboso
Visibility: 10 km
Cloud details: Few Clouds 1372 m
Parcialmente nuboso 1829 m
2017/12/11 07:30 LEBB 110730Z 26006KT 230V290 9999 FEW045 SCT060 09/05 Q0989 NOSIG
LESO - San Sebastian/Fu, Spain
Distance from station: N 231km
Actualización: 11/12/2017 08:30
Lluvia débil, Muy nuboso
Lluvia débil, Muy nuboso
 Viento del OSO
Viento: OSO 15 km/h
Temperatura: 10°C
Sensación frio: 8°C
Rocío: 6°C
Humedad: 76%
Barómetro: 988 hPa
Resumen: Lluvia débil
Clouds: Muy nuboso
Visibility: 10 km
Cloud details: Parcialmente nuboso 823 m
Muy nuboso 1341 m
2017/12/11 07:30 LESO 110730Z 25008KT 210V290 9999 -RA SCT027 BKN044 10/06 Q0988
 
LEVD - Valladolid(Mil/C, Spain
Distance from station: ONO 239km
Actualización: 11/12/2017 08:30
Few Clouds
Few Clouds
 Viento del O
Viento: O 24 km/h
Temperatura: 3°C
Sensación frio: -2°C
Rocío: 1°C
Humedad: 87%
Barómetro: 991 hPa
Clouds: Few Clouds
Visibility: 10 km
Cloud details: Few Clouds 274 m
2017/12/11 07:30 LEVD 110730Z 26013KT 9999 FEW009 03/01 Q0991
LESA - Salamanca (civ/M, Spain
Distance from station: ONO 349km
Actualización: 11/12/2017 08:30
Parcialmente nuboso
Parcialmente nuboso
 Viento del ONO
Viento: ONO 31 km/h
Temperatura: 4°C
Sensación frio: -2°C
Rocío: 2°C
Humedad: 87%
Barómetro: 993 hPa
Clouds: Parcialmente nuboso
Visibility: 10 km
Cloud details: Parcialmente nuboso 366 m
2017/12/11 07:30 LESA 110730Z 29017KT 9999 SCT012 04/02 Q0993
 
LEXJ - Santander/Paraya, Spain
Distance from station: NNO 247km
Actualización: 11/12/2017 08:30
Few Clouds
Few Clouds
 Viento del OSO
Viento: OSO 19 km/h
Temperatura: 9°C
Sensación frio: 6°C
Rocío: 5°C
Humedad: 76%
Barómetro: 989 hPa
Clouds: Few Clouds
Visibility: 10 km
Cloud details: Few Clouds 1890 m
2017/12/11 07:30 LEXJ 110730Z 25010KT 220V280 9999 FEW062 09/05 Q0989
LEAS - Asturias/Aviles, Spain
Distance from station: NO 214km
Actualización: 11/12/2017 08:30
Lluvia débil, Showers, Muy nuboso
Lluvia débil, Showers, Muy nuboso
 Viento del SO
Viento: SO 22 km/h, Racha: 43 km/h
Temperatura: 7°C
Sensación frio: 4°C
Rocío: 4°C
Humedad: 81%
Barómetro: 989 hPa
Resumen: Lluvia débil, Showers
Clouds: Muy nuboso
Visibility: 10 km
Cloud details: Few Clouds 914 m
Muy nuboso 1219 m
Muy nuboso 2134 m
2017/12/11 07:30 LEAS 110730Z 23012G23KT 200V260 9999 -SHRA FEW030TCU BKN040 BKN070 07/04 Q0989 TEMPO 4000 SHRA BKN025TCU
 
LECO - La Coruna/Alvedr, Spain
Distance from station: ONO 222km
Actualización: 11/12/2017 08:30
Parcialmente nuboso
Parcialmente nuboso
 Viento del SO
Viento: SO 13 km/h
Temperatura: 7°C
Sensación frio: 5°C
Rocío: 6°C
Humedad: 93%
Barómetro: 991 hPa
Clouds: Parcialmente nuboso
Visibility: 10 km
Cloud details: Parcialmente nuboso 1006 m
Parcialmente nuboso 1219 m
2017/12/11 07:30 LECO 110730Z 23007KT 9999 SCT033 SCT040 07/06 Q0991 TEMPO 2000 TSRAGR BKN020CB
LEVX - Vigo/Peinador, Spain
Distance from station: O 214km
Actualización: 11/12/2017 08:40
Thunderstorm, Lluvia intensa, Showers, Parcialmente nuboso
Thunderstorm, Lluvia intensa, Showers, Parcialmente nuboso
 Viento del varies
Viento: varies 6 km/h
Temperatura: 7°C
Rocío: 6°C
Humedad: 93%
Barómetro: 994 hPa
Resumen: Thunderstorm, Lluvia intensa, Showers
Clouds: Parcialmente nuboso
Visibility: 6 km
Cloud details: Few Clouds 244 m
Parcialmente nuboso 427 m
Parcialmente nuboso 610 m
2017/12/11 07:40 LEVX 110740Z VRB03KT 6000 TS +SHRA FEW008CB SCT014 SCT020CB 07/06 Q0994 TEMPO 3000 TS SHRA BKN020CB